sensor_id;sensor_type;location;lat;lon;timestamp;pressure;altitude;pressure_sealevel;temperature;humidity
78894;BME280;68282;42.698;23.350;2023-04-12T00:01:00;94552.63;;;10.35;58.61
78894;BME280;68282;42.698;23.350;2023-04-12T00:03:26;94544.19;;;10.31;58.51
78894;BME280;68282;42.698;23.350;2023-04-12T00:05:51;94552.91;;;10.33;58.69
78894;BME280;68282;42.698;23.350;2023-04-12T00:08:21;94543.03;;;10.27;58.77
78894;BME280;68282;42.698;23.350;2023-04-12T00:10:51;94545.25;;;10.30;58.69
78894;BME280;68282;42.698;23.350;2023-04-12T00:13:17;94543.03;;;10.27;58.70
78894;BME280;68282;42.698;23.350;2023-04-12T00:15:44;94547.09;;;10.25;59.07
78894;BME280;68282;42.698;23.350;2023-04-12T00:18:09;94545.31;;;10.35;58.77
78894;BME280;68282;42.698;23.350;2023-04-12T00:20:35;94538.09;;;10.46;58.23
78894;BME280;68282;42.698;23.350;2023-04-12T00:23:00;94528.56;;;10.44;57.96
78894;BME280;68282;42.698;23.350;2023-04-12T00:25:26;94530.47;;;10.43;58.62
78894;BME280;68282;42.698;23.350;2023-04-12T00:27:52;94529.44;;;10.49;57.94
78894;BME280;68282;42.698;23.350;2023-04-12T00:30:17;94528.06;;;10.47;57.92
78894;BME280;68282;42.698;23.350;2023-04-12T00:32:43;94532.94;;;10.45;58.64
78894;BME280;68282;42.698;23.350;2023-04-12T00:35:08;94532.31;;;10.38;58.48
78894;BME280;68282;42.698;23.350;2023-04-12T00:37:34;94534.97;;;10.32;58.55
78894;BME280;68282;42.698;23.350;2023-04-12T00:40:01;94533.78;;;10.23;59.10
78894;BME280;68282;42.698;23.350;2023-04-12T00:42:26;94527.88;;;10.31;59.01
78894;BME280;68282;42.698;23.350;2023-04-12T00:44:52;94526.88;;;10.38;58.54
78894;BME280;68282;42.698;23.350;2023-04-12T00:47:17;94527.69;;;10.38;58.43
78894;BME280;68282;42.698;23.350;2023-04-12T00:49:43;94527.81;;;10.48;58.39
78894;BME280;68282;42.698;23.350;2023-04-12T00:52:10;94517.69;;;10.44;58.13
78894;BME280;68282;42.698;23.350;2023-04-12T00:54:38;94517.63;;;10.39;58.65
78894;BME280;68282;42.698;23.350;2023-04-12T00:57:04;94523.25;;;10.32;58.74
78894;BME280;68282;42.698;23.350;2023-04-12T00:59:30;94520.28;;;10.33;58.75
78894;BME280;68282;42.698;23.350;2023-04-12T01:01:57;94517.03;;;10.36;58.39
78894;BME280;68282;42.698;23.350;2023-04-12T01:04:24;94508.69;;;10.38;57.89
78894;BME280;68282;42.698;23.350;2023-04-12T01:09:37;94516.16;;;10.53;57.89
78894;BME280;68282;42.698;23.350;2023-04-12T01:15:08;94513.38;;;10.48;58.13
78894;BME280;68282;42.698;23.350;2023-04-12T01:17:38;94522.06;;;10.45;58.28
78894;BME280;68282;42.698;23.350;2023-04-12T01:20:08;94512.72;;;10.35;58.37
78894;BME280;68282;42.698;23.350;2023-04-12T01:28:14;94500.25;;;10.40;58.17
78894;BME280;68282;42.698;23.350;2023-04-12T01:30:41;94509.56;;;10.49;58.18
78894;BME280;68282;42.698;23.350;2023-04-12T01:33:09;94500.91;;;10.52;57.68
78894;BME280;68282;42.698;23.350;2023-04-12T01:35:36;94510.66;;;10.48;57.78
78894;BME280;68282;42.698;23.350;2023-04-12T01:38:05;94503.59;;;10.47;58.17
78894;BME280;68282;42.698;23.350;2023-04-12T01:40:32;94506.75;;;10.39;57.83
78894;BME280;68282;42.698;23.350;2023-04-12T01:43:13;94500.25;;;10.40;58.46
78894;BME280;68282;42.698;23.350;2023-04-12T01:45:40;94504.09;;;10.44;58.87
78894;BME280;68282;42.698;23.350;2023-04-12T01:48:07;94510.56;;;10.38;58.93
78894;BME280;68282;42.698;23.350;2023-04-12T01:53:24;94494.69;;;10.29;59.26
78894;BME280;68282;42.698;23.350;2023-04-12T01:55:56;94498.00;;;10.36;59.10
78894;BME280;68282;42.698;23.350;2023-04-12T01:58:23;94491.69;;;10.26;59.45
78894;BME280;68282;42.698;23.350;2023-04-12T02:00:50;94496.03;;;10.27;60.09
78894;BME280;68282;42.698;23.350;2023-04-12T02:03:19;94485.44;;;10.25;59.60
78894;BME280;68282;42.698;23.350;2023-04-12T02:05:46;94496.25;;;10.20;60.24
78894;BME280;68282;42.698;23.350;2023-04-12T02:08:11;94486.94;;;10.16;60.05
78894;BME280;68282;42.698;23.350;2023-04-12T02:10:37;94495.06;;;10.11;60.44
78894;BME280;68282;42.698;23.350;2023-04-12T02:13:04;94481.72;;;10.09;60.41
78894;BME280;68282;42.698;23.350;2023-04-12T02:15:30;94486.91;;;10.11;60.49
78894;BME280;68282;42.698;23.350;2023-04-12T02:17:56;94492.84;;;10.08;60.38
78894;BME280;68282;42.698;23.350;2023-04-12T02:20:23;94501.84;;;10.08;60.15
78894;BME280;68282;42.698;23.350;2023-04-12T02:22:49;94498.25;;;10.02;60.52
78894;BME280;68282;42.698;23.350;2023-04-12T02:25:15;94492.25;;;10.00;60.08
78894;BME280;68282;42.698;23.350;2023-04-12T02:27:43;94494.19;;;10.05;60.07
78894;BME280;68282;42.698;23.350;2023-04-12T02:30:09;94498.75;;;9.99;60.33
78894;BME280;68282;42.698;23.350;2023-04-12T02:32:34;94496.84;;;10.00;60.13
78894;BME280;68282;42.698;23.350;2023-04-12T02:35:09;94497.97;;;10.04;60.22
78894;BME280;68282;42.698;23.350;2023-04-12T02:37:34;94498.75;;;9.99;60.67
78894;BME280;68282;42.698;23.350;2023-04-12T02:40:01;94496.63;;;9.79;60.89
78894;BME280;68282;42.698;23.350;2023-04-12T02:42:28;94489.84;;;9.82;61.10
78894;BME280;68282;42.698;23.350;2023-04-12T02:44:54;94498.94;;;9.93;60.60
78894;BME280;68282;42.698;23.350;2023-04-12T02:47:19;94486.31;;;9.81;60.92
78894;BME280;68282;42.698;23.350;2023-04-12T02:49:45;94481.84;;;9.92;60.64
78894;BME280;68282;42.698;23.350;2023-04-12T02:52:10;94488.09;;;9.93;60.12
78894;BME280;68282;42.698;23.350;2023-04-12T02:54:36;94496.22;;;9.93;60.35
78894;BME280;68282;42.698;23.350;2023-04-12T02:57:01;94487.47;;;10.13;59.93
78894;BME280;68282;42.698;23.350;2023-04-12T02:59:28;94479.56;;;10.11;59.87
78894;BME280;68282;42.698;23.350;2023-04-12T03:01:53;94484.00;;;10.17;59.41
78894;BME280;68282;42.698;23.350;2023-04-12T03:04:18;94484.56;;;10.19;59.78
78894;BME280;68282;42.698;23.350;2023-04-12T03:06:44;94488.59;;;10.17;60.28
78894;BME280;68282;42.698;23.350;2023-04-12T03:09:17;94488.09;;;9.93;61.44
78894;BME280;68282;42.698;23.350;2023-04-12T03:11:44;94485.56;;;9.86;62.93
78894;BME280;68282;42.698;23.350;2023-04-12T03:14:09;94486.06;;;9.83;62.85
78894;BME280;68282;42.698;23.350;2023-04-12T03:16:34;94487.22;;;9.87;63.26
78894;BME280;68282;42.698;23.350;2023-04-12T03:19:01;94497.31;;;9.92;63.37
78894;BME280;68282;42.698;23.350;2023-04-12T03:21:27;94482.91;;;9.91;63.75
78894;BME280;68282;42.698;23.350;2023-04-12T03:23:53;94490.53;;;9.94;63.96
78894;BME280;68282;42.698;23.350;2023-04-12T03:26:18;94504.22;;;10.04;63.18
78894;BME280;68282;42.698;23.350;2023-04-12T03:28:45;94489.75;;;9.99;63.75
78894;BME280;68282;42.698;23.350;2023-04-12T03:31:11;94491.78;;;10.09;62.98
78894;BME280;68282;42.698;23.350;2023-04-12T03:33:37;94498.25;;;10.02;63.47
78894;BME280;68282;42.698;23.350;2023-04-12T03:36:03;94491.72;;;10.03;63.24
78894;BME280;68282;42.698;23.350;2023-04-12T03:38:29;94495.72;;;9.96;63.44
78894;BME280;68282;42.698;23.350;2023-04-12T03:40:55;94491.06;;;9.91;63.69
78894;BME280;68282;42.698;23.350;2023-04-12T03:43:20;94492.06;;;9.85;63.58
78894;BME280;68282;42.698;23.350;2023-04-12T03:45:46;94504.56;;;9.86;63.90
78894;BME280;68282;42.698;23.350;2023-04-12T03:48:12;94502.69;;;9.86;63.38
78894;BME280;68282;42.698;23.350;2023-04-12T03:50:37;94496.13;;;9.82;63.58
78894;BME280;68282;42.698;23.350;2023-04-12T03:53:06;94501.81;;;9.81;63.05
78894;BME280;68282;42.698;23.350;2023-04-12T03:55:31;94513.19;;;9.78;63.09
78894;BME280;68282;42.698;23.350;2023-04-12T03:57:56;94518.91;;;9.81;62.70
78894;BME280;68282;42.698;23.350;2023-04-12T04:00:22;94509.88;;;9.75;63.66
78894;BME280;68282;42.698;23.350;2023-04-12T04:02:47;94507.75;;;9.78;63.15
78894;BME280;68282;42.698;23.350;2023-04-12T04:05:14;94513.69;;;9.74;62.91
78894;BME280;68282;42.698;23.350;2023-04-12T04:07:40;94513.47;;;9.81;62.74
78894;BME280;68282;42.698;23.350;2023-04-12T04:10:06;94506.78;;;9.89;62.60
78894;BME280;68282;42.698;23.350;2023-04-12T04:12:31;94514.88;;;9.84;62.50
78894;BME280;68282;42.698;23.350;2023-04-12T04:14:56;94511.84;;;9.80;62.62
78894;BME280;68282;42.698;23.350;2023-04-12T04:17:22;94524.63;;;9.80;62.69
78894;BME280;68282;42.698;23.350;2023-04-12T04:19:47;94527.81;;;9.77;63.00
78894;BME280;68282;42.698;23.350;2023-04-12T04:22:13;94533.81;;;9.79;62.85
78894;BME280;68282;42.698;23.350;2023-04-12T04:24:39;94540.63;;;9.81;62.49
78894;BME280;68282;42.698;23.350;2023-04-12T04:27:04;94541.97;;;9.79;63.01
78894;BME280;68282;42.698;23.350;2023-04-12T04:29:30;94544.13;;;9.77;62.45
78894;BME280;68282;42.698;23.350;2023-04-12T04:31:56;94546.88;;;9.82;62.31
78894;BME280;68282;42.698;23.350;2023-04-12T04:34:22;94552.13;;;9.88;62.71
78894;BME280;68282;42.698;23.350;2023-04-12T04:36:47;94549.16;;;9.90;62.06
78894;BME280;68282;42.698;23.350;2023-04-12T04:39:12;94555.75;;;9.72;62.08
78894;BME280;68282;42.698;23.350;2023-04-12T04:41:38;94558.00;;;9.80;62.12
78894;BME280;68282;42.698;23.350;2023-04-12T04:44:05;94564.28;;;9.81;62.42
78894;BME280;68282;42.698;23.350;2023-04-12T04:46:35;94565.53;;;9.73;62.02
78894;BME280;68282;42.698;23.350;2023-04-12T04:49:05;94570.38;;;9.71;62.67
78894;BME280;68282;42.698;23.350;2023-04-12T04:51:31;94561.78;;;9.79;61.89
78894;BME280;68282;42.698;23.350;2023-04-12T04:53:57;94576.56;;;9.88;61.62
78894;BME280;68282;42.698;23.350;2023-04-12T04:56:22;94571.59;;;9.80;61.32
78894;BME280;68282;42.698;23.350;2023-04-12T04:58:49;94572.16;;;9.82;61.03
78894;BME280;68282;42.698;23.350;2023-04-12T05:01:15;94571.09;;;9.83;60.60
78894;BME280;68282;42.698;23.350;2023-04-12T05:03:41;94572.66;;;9.79;61.19
78894;BME280;68282;42.698;23.350;2023-04-12T05:06:12;94574.25;;;9.75;60.85
78894;BME280;68282;42.698;23.350;2023-04-12T05:08:37;94571.84;;;9.79;60.96
78894;BME280;68282;42.698;23.350;2023-04-12T05:11:03;94572.91;;;9.78;60.63
78894;BME280;68282;42.698;23.350;2023-04-12T05:13:28;94595.63;;;9.71;60.71
78894;BME280;68282;42.698;23.350;2023-04-12T05:15:54;94582.81;;;9.67;61.10
78894;BME280;68282;42.698;23.350;2023-04-12T05:18:19;94584.28;;;9.74;60.32
78894;BME280;68282;42.698;23.350;2023-04-12T05:20:45;94585.44;;;9.79;60.06
78894;BME280;68282;42.698;23.350;2023-04-12T05:23:13;94589.97;;;9.95;59.63
78894;BME280;68282;42.698;23.350;2023-04-12T05:25:47;94585.09;;;9.97;59.06
78894;BME280;68282;42.698;23.350;2023-04-12T05:28:14;94590.63;;;10.02;58.94
78894;BME280;68282;42.698;23.350;2023-04-12T05:30:41;94595.34;;;9.90;58.75
78894;BME280;68282;42.698;23.350;2023-04-12T05:33:06;94589.72;;;9.97;58.70
78894;BME280;68282;42.698;23.350;2023-04-12T05:35:32;94590.34;;;9.82;58.16
78894;BME280;68282;42.698;23.350;2023-04-12T05:37:57;94595.28;;;9.85;58.05
78894;BME280;68282;42.698;23.350;2023-04-12T05:40:23;94598.75;;;9.80;57.85
78894;BME280;68282;42.698;23.350;2023-04-12T05:42:48;94599.72;;;9.91;57.96
78894;BME280;68282;42.698;23.350;2023-04-12T05:45:13;94603.50;;;9.90;57.83
78894;BME280;68282;42.698;23.350;2023-04-12T05:47:39;94592.63;;;9.90;57.43
78894;BME280;68282;42.698;23.350;2023-04-12T05:50:05;94599.56;;;10.03;56.50
78894;BME280;68282;42.698;23.350;2023-04-12T05:52:31;94600.53;;;10.14;56.50
78894;BME280;68282;42.698;23.350;2023-04-12T05:54:57;94601.06;;;10.16;54.61
78894;BME280;68282;42.698;23.350;2023-04-12T05:57:22;94594.72;;;10.05;55.59
78894;BME280;68282;42.698;23.350;2023-04-12T05:59:48;94601.72;;;10.23;55.32
78894;BME280;68282;42.698;23.350;2023-04-12T06:02:13;94598.47;;;10.26;54.45
78894;BME280;68282;42.698;23.350;2023-04-12T06:04:39;94609.56;;;10.19;53.99
78894;BME280;68282;42.698;23.350;2023-04-12T06:07:05;94603.63;;;10.00;54.81
78894;BME280;68282;42.698;23.350;2023-04-12T06:09:31;94621.75;;;9.95;55.19
78894;BME280;68282;42.698;23.350;2023-04-12T06:11:56;94615.25;;;9.96;54.57
78894;BME280;68282;42.698;23.350;2023-04-12T06:14:22;94626.66;;;9.98;55.21
78894;BME280;68282;42.698;23.350;2023-04-12T06:16:47;94630.75;;;9.78;55.65
78894;BME280;68282;42.698;23.350;2023-04-12T06:19:13;94622.78;;;9.71;55.71
78894;BME280;68282;42.698;23.350;2023-04-12T06:21:38;94636.44;;;9.77;56.00
78894;BME280;68282;42.698;23.350;2023-04-12T06:24:04;94635.47;;;9.66;55.90
78894;BME280;68282;42.698;23.350;2023-04-12T06:26:30;94634.09;;;9.63;56.98
78894;BME280;68282;42.698;23.350;2023-04-12T06:29:05;94627.41;;;9.71;57.55
78894;BME280;68282;42.698;23.350;2023-04-12T06:31:30;94635.38;;;9.78;57.82
78894;BME280;68282;42.698;23.350;2023-04-12T06:33:56;94620.41;;;9.75;57.33
78894;BME280;68282;42.698;23.350;2023-04-12T06:36:21;94633.59;;;9.88;58.29
78894;BME280;68282;42.698;23.350;2023-04-12T06:38:47;94622.25;;;9.92;56.92
78894;BME280;68282;42.698;23.350;2023-04-12T06:41:14;94626.03;;;9.90;55.64
78894;BME280;68282;42.698;23.350;2023-04-12T06:43:40;94615.94;;;9.86;55.44
78894;BME280;68282;42.698;23.350;2023-04-12T06:46:05;94617.13;;;9.95;55.67
78894;BME280;68282;42.698;23.350;2023-04-12T06:48:33;94615.47;;;9.94;55.32
78894;BME280;68282;42.698;23.350;2023-04-12T06:50:58;94627.69;;;10.14;55.44
78894;BME280;68282;42.698;23.350;2023-04-12T06:53:23;94608.09;;;10.12;54.79
78894;BME280;68282;42.698;23.350;2023-04-12T06:55:49;94597.25;;;10.12;54.56
78894;BME280;68282;42.698;23.350;2023-04-12T06:58:15;94600.59;;;9.97;54.67
78894;BME280;68282;42.698;23.350;2023-04-12T07:00:40;94599.66;;;10.08;54.81
78894;BME280;68282;42.698;23.350;2023-04-12T07:03:07;94602.16;;;10.15;54.90
78894;BME280;68282;42.698;23.350;2023-04-12T07:05:37;94597.94;;;10.24;55.45
78894;BME280;68282;42.698;23.350;2023-04-12T07:08:03;94612.38;;;10.52;54.25
78894;BME280;68282;42.698;23.350;2023-04-12T07:10:30;94594.69;;;10.49;53.51
78894;BME280;68282;42.698;23.350;2023-04-12T07:12:55;94598.03;;;10.57;53.67
78894;BME280;68282;42.698;23.350;2023-04-12T07:15:22;94603.53;;;10.62;53.12
78894;BME280;68282;42.698;23.350;2023-04-12T07:17:48;94591.09;;;10.71;53.16
78894;BME280;68282;42.698;23.350;2023-04-12T07:20:13;94586.03;;;10.80;52.65
78894;BME280;68282;42.698;23.350;2023-04-12T07:22:39;94589.34;;;10.87;52.17
78894;BME280;68282;42.698;23.350;2023-04-12T07:25:05;94587.84;;;11.02;50.65
78894;BME280;68282;42.698;23.350;2023-04-12T07:27:34;94579.59;;;10.91;50.89
78894;BME280;68282;42.698;23.350;2023-04-12T07:29:59;94577.03;;;10.79;50.56
78894;BME280;68282;42.698;23.350;2023-04-12T07:32:25;94577.63;;;10.87;51.10
78894;BME280;68282;42.698;23.350;2023-04-12T07:34:51;94595.66;;;10.93;51.07
78894;BME280;68282;42.698;23.350;2023-04-12T07:37:20;94579.44;;;10.76;51.25
78894;BME280;68282;42.698;23.350;2023-04-12T07:39:45;94602.06;;;10.81;51.55
78894;BME280;68282;42.698;23.350;2023-04-12T07:42:10;94598.47;;;10.76;50.94
78894;BME280;68282;42.698;23.350;2023-04-12T07:44:36;94581.59;;;10.74;50.96
78894;BME280;68282;42.698;23.350;2023-04-12T07:47:01;94594.63;;;10.72;51.42
78894;BME280;68282;42.698;23.350;2023-04-12T07:49:27;94582.19;;;10.81;50.63
78894;BME280;68282;42.698;23.350;2023-04-12T07:51:52;94574.97;;;10.92;50.42
78894;BME280;68282;42.698;23.350;2023-04-12T07:54:18;94569.09;;;11.10;49.55
78894;BME280;68282;42.698;23.350;2023-04-12T07:56:56;94566.16;;;11.17;48.91
78894;BME280;68282;42.698;23.350;2023-04-12T07:59:22;94560.78;;;11.22;48.05
78894;BME280;68282;42.698;23.350;2023-04-12T08:01:48;94554.25;;;11.23;47.91
78894;BME280;68282;42.698;23.350;2023-04-12T08:04:13;94552.03;;;11.20;47.96
78894;BME280;68282;42.698;23.350;2023-04-12T08:06:38;94560.72;;;11.17;46.90
78894;BME280;68282;42.698;23.350;2023-04-12T08:09:20;94561.16;;;11.04;47.05
78894;BME280;68282;42.698;23.350;2023-04-12T08:11:46;94564.16;;;11.02;46.81
78894;BME280;68282;42.698;23.350;2023-04-12T08:14:11;94538.72;;;10.86;46.30
78894;BME280;68282;42.698;23.350;2023-04-12T08:16:37;94542.50;;;10.80;46.61
78894;BME280;68282;42.698;23.350;2023-04-12T08:19:03;94546.53;;;10.77;46.18
78894;BME280;68282;42.698;23.350;2023-04-12T08:21:28;94557.09;;;10.69;46.54
78894;BME280;68282;42.698;23.350;2023-04-12T08:23:56;94557.19;;;10.79;45.38
78894;BME280;68282;42.698;23.350;2023-04-12T08:26:21;94554.69;;;10.77;45.17
78894;BME280;68282;42.698;23.350;2023-04-12T08:28:47;94553.69;;;10.89;45.39
78894;BME280;68282;42.698;23.350;2023-04-12T08:31:13;94545.91;;;11.03;44.95
78894;BME280;68282;42.698;23.350;2023-04-12T08:33:39;94543.81;;;11.10;43.09
78894;BME280;68282;42.698;23.350;2023-04-12T08:36:05;94551.03;;;11.32;43.05
78894;BME280;68282;42.698;23.350;2023-04-12T08:38:31;94547.81;;;11.40;41.67
78894;BME280;68282;42.698;23.350;2023-04-12T08:40:57;94556.56;;;11.47;41.56
78894;BME280;68282;42.698;23.350;2023-04-12T08:43:28;94557.09;;;11.44;40.62
78894;BME280;68282;42.698;23.350;2023-04-12T08:45:55;94564.72;;;11.42;40.87
78894;BME280;68282;42.698;23.350;2023-04-12T08:48:22;94569.59;;;11.40;40.90
78894;BME280;68282;42.698;23.350;2023-04-12T08:50:50;94572.66;;;11.49;40.44
78894;BME280;68282;42.698;23.350;2023-04-12T08:53:17;94558.47;;;11.47;39.59
78894;BME280;68282;42.698;23.350;2023-04-12T08:55:46;94567.72;;;11.45;39.57
78894;BME280;68282;42.698;23.350;2023-04-12T08:58:15;94588.31;;;11.31;39.26
78894;BME280;68282;42.698;23.350;2023-04-12T09:00:41;94577.25;;;11.48;39.45
78894;BME280;68282;42.698;23.350;2023-04-12T09:03:06;94578.44;;;11.57;39.67
78894;BME280;68282;42.698;23.350;2023-04-12T09:05:32;94547.41;;;11.64;39.83
78894;BME280;68282;42.698;23.350;2023-04-12T09:07:58;94558.44;;;11.95;38.98
78894;BME280;68282;42.698;23.350;2023-04-12T09:10:34;94541.09;;;12.11;37.66
78894;BME280;68282;42.698;23.350;2023-04-12T09:13:01;94546.28;;;12.13;37.25
78894;BME280;68282;42.698;23.350;2023-04-12T09:15:28;94536.34;;;11.91;36.90
78894;BME280;68282;42.698;23.350;2023-04-12T09:18:06;94546.25;;;12.07;36.55
78894;BME280;68282;42.698;23.350;2023-04-12T09:20:32;94521.47;;;12.09;37.49
78894;BME280;68282;42.698;23.350;2023-04-12T09:22:58;94555.84;;;12.20;35.28
78894;BME280;68282;42.698;23.350;2023-04-12T09:25:38;94520.94;;;12.12;35.77
78894;BME280;68282;42.698;23.350;2023-04-12T09:28:04;94522.88;;;12.27;35.94
78894;BME280;68282;42.698;23.350;2023-04-12T09:30:42;94520.41;;;12.20;34.84
78894;BME280;68282;42.698;23.350;2023-04-12T09:33:11;94517.09;;;12.13;34.34
78894;BME280;68282;42.698;23.350;2023-04-12T09:35:39;94514.97;;;12.26;34.21
78894;BME280;68282;42.698;23.350;2023-04-12T09:38:08;94502.94;;;12.16;34.68
78894;BME280;68282;42.698;23.350;2023-04-12T09:40:34;94510.88;;;12.23;34.33
78894;BME280;68282;42.698;23.350;2023-04-12T09:43:01;94510.88;;;12.28;33.75
78894;BME280;68282;42.698;23.350;2023-04-12T09:45:26;94502.09;;;12.11;33.99
78894;BME280;68282;42.698;23.350;2023-04-12T09:47:53;94497.78;;;12.15;34.26
78894;BME280;68282;42.698;23.350;2023-04-12T09:50:26;94479.53;;;12.46;34.41
78894;BME280;68282;42.698;23.350;2023-04-12T09:52:53;94473.00;;;12.73;33.13
78894;BME280;68282;42.698;23.350;2023-04-12T09:55:28;94474.38;;;12.81;32.41
78894;BME280;68282;42.698;23.350;2023-04-12T09:57:54;94453.38;;;12.87;32.95
78894;BME280;68282;42.698;23.350;2023-04-12T10:00:21;94490.97;;;13.15;33.73
78894;BME280;68282;42.698;23.350;2023-04-12T10:02:49;94468.88;;;13.12;33.91
78894;BME280;68282;42.698;23.350;2023-04-12T10:05:17;94470.25;;;13.09;33.51
78894;BME280;68282;42.698;23.350;2023-04-12T10:07:44;94482.22;;;13.29;32.37
78894;BME280;68282;42.698;23.350;2023-04-12T10:10:11;94462.09;;;12.99;30.64
78894;BME280;68282;42.698;23.350;2023-04-12T10:12:39;94450.66;;;12.76;30.58
78894;BME280;68282;42.698;23.350;2023-04-12T10:15:07;94465.34;;;12.91;30.66
78894;BME280;68282;42.698;23.350;2023-04-12T10:17:43;94435.63;;;12.89;29.35
78894;BME280;68282;42.698;23.350;2023-04-12T10:20:12;94436.44;;;12.79;29.27
78894;BME280;68282;42.698;23.350;2023-04-12T10:22:40;94448.97;;;12.91;28.95
78894;BME280;68282;42.698;23.350;2023-04-12T10:25:18;94445.16;;;12.92;28.54
78894;BME280;68282;42.698;23.350;2023-04-12T10:27:45;94448.94;;;13.17;27.98
78894;BME280;68282;42.698;23.350;2023-04-12T10:30:30;94458.47;;;13.35;28.28
78894;BME280;68282;42.698;23.350;2023-04-12T10:35:27;94445.06;;;13.49;27.76
78894;BME280;68282;42.698;23.350;2023-04-12T10:40:23;94427.34;;;13.96;27.16
78894;BME280;68282;42.698;23.350;2023-04-12T10:42:48;94436.97;;;13.88;26.67
78894;BME280;68282;42.698;23.350;2023-04-12T10:45:34;94418.31;;;13.96;26.72
78894;BME280;68282;42.698;23.350;2023-04-12T10:48:00;94417.38;;;14.16;26.31
78894;BME280;68282;42.698;23.350;2023-04-12T10:50:31;94418.47;;;14.20;26.24
78894;BME280;68282;42.698;23.350;2023-04-12T10:55:43;94412.88;;;14.35;26.25
78894;BME280;68282;42.698;23.350;2023-04-12T10:58:10;94406.38;;;14.26;25.71
78894;BME280;68282;42.698;23.350;2023-04-12T11:03:20;94395.44;;;14.26;25.32
78894;BME280;68282;42.698;23.350;2023-04-12T11:06:03;94405.25;;;14.32;25.50
78894;BME280;68282;42.698;23.350;2023-04-12T11:08:31;94413.47;;;14.67;24.27
78894;BME280;68282;42.698;23.350;2023-04-12T11:11:07;94404.41;;;14.66;24.51
78894;BME280;68282;42.698;23.350;2023-04-12T11:13:42;94405.75;;;14.74;24.63
78894;BME280;68282;42.698;23.350;2023-04-12T11:16:09;94416.47;;;14.71;24.41
78894;BME280;68282;42.698;23.350;2023-04-12T11:18:37;94388.66;;;14.88;24.85
78894;BME280;68282;42.698;23.350;2023-04-12T11:21:03;94391.81;;;14.71;24.26
78894;BME280;68282;42.698;23.350;2023-04-12T11:23:30;94412.72;;;14.91;25.09
78894;BME280;68282;42.698;23.350;2023-04-12T11:25:56;94384.47;;;14.95;25.14
78894;BME280;68282;42.698;23.350;2023-04-12T11:28:22;94401.75;;;15.20;24.52
78894;BME280;68282;42.698;23.350;2023-04-12T11:31:00;94398.63;;;15.27;24.04
78894;BME280;68282;42.698;23.350;2023-04-12T11:33:38;94383.50;;;15.35;24.05
78894;BME280;68282;42.698;23.350;2023-04-12T11:36:13;94391.59;;;15.69;23.87
78894;BME280;68282;42.698;23.350;2023-04-12T11:38:39;94402.69;;;15.78;23.70
78894;BME280;68282;42.698;23.350;2023-04-12T11:41:06;94388.72;;;15.55;23.53
78894;BME280;68282;42.698;23.350;2023-04-12T11:43:35;94374.69;;;15.38;23.97
78894;BME280;68282;42.698;23.350;2023-04-12T11:46:04;94382.13;;;15.37;24.15
78894;BME280;68282;42.698;23.350;2023-04-12T11:48:31;94395.34;;;15.54;24.36
78894;BME280;68282;42.698;23.350;2023-04-12T11:50:56;94395.28;;;15.79;23.58
78894;BME280;68282;42.698;23.350;2023-04-12T11:53:27;94390.88;;;16.02;23.36
78894;BME280;68282;42.698;23.350;2023-04-12T11:55:55;94396.91;;;16.04;23.20
78894;BME280;68282;42.698;23.350;2023-04-12T11:58:22;94391.69;;;16.21;23.51
78894;BME280;68282;42.698;23.350;2023-04-12T12:00:50;94405.38;;;15.83;23.15
78894;BME280;68282;42.698;23.350;2023-04-12T12:03:16;94393.84;;;15.86;23.31
78894;BME280;68282;42.698;23.350;2023-04-12T12:05:43;94430.34;;;15.82;23.57
78894;BME280;68282;42.698;23.350;2023-04-12T12:08:09;94392.81;;;15.77;24.02
78894;BME280;68282;42.698;23.350;2023-04-12T12:10:36;94394.09;;;15.90;23.84
78894;BME280;68282;42.698;23.350;2023-04-12T12:13:02;94411.53;;;15.75;23.66
78894;BME280;68282;42.698;23.350;2023-04-12T12:15:33;94380.00;;;15.72;23.92
78894;BME280;68282;42.698;23.350;2023-04-12T12:17:58;94388.47;;;15.76;23.60
78894;BME280;68282;42.698;23.350;2023-04-12T12:20:26;94377.13;;;15.64;24.16
78894;BME280;68282;42.698;23.350;2023-04-12T12:22:51;94395.78;;;15.61;24.37
78894;BME280;68282;42.698;23.350;2023-04-12T12:25:17;94393.56;;;15.64;24.36
78894;BME280;68282;42.698;23.350;2023-04-12T12:27:43;94382.75;;;15.72;23.66
78894;BME280;68282;42.698;23.350;2023-04-12T12:30:16;94414.91;;;15.67;24.24
78894;BME280;68282;42.698;23.350;2023-04-12T12:32:42;94376.25;;;15.44;24.62
78894;BME280;68282;42.698;23.350;2023-04-12T12:35:10;94397.41;;;15.38;24.74
78894;BME280;68282;42.698;23.350;2023-04-12T12:37:36;94397.38;;;15.43;23.44
78894;BME280;68282;42.698;23.350;2023-04-12T12:40:06;94383.09;;;15.46;23.88
78894;BME280;68282;42.698;23.350;2023-04-12T12:42:45;94400.22;;;15.33;24.21
78894;BME280;68282;42.698;23.350;2023-04-12T12:45:14;94403.59;;;15.49;24.05
78894;BME280;68282;42.698;23.350;2023-04-12T12:47:53;94410.13;;;15.29;23.71
78894;BME280;68282;42.698;23.350;2023-04-12T12:50:21;94401.16;;;15.48;24.32
78894;BME280;68282;42.698;23.350;2023-04-12T12:52:47;94407.91;;;15.55;23.58
78894;BME280;68282;42.698;23.350;2023-04-12T12:55:14;94404.50;;;15.44;23.91
78894;BME280;68282;42.698;23.350;2023-04-12T12:57:41;94401.53;;;15.41;24.37
78894;BME280;68282;42.698;23.350;2023-04-12T13:00:07;94408.50;;;15.28;23.95
78894;BME280;68282;42.698;23.350;2023-04-12T13:02:34;94404.06;;;15.08;24.62
78894;BME280;68282;42.698;23.350;2023-04-12T13:05:01;94386.81;;;15.07;24.25
78894;BME280;68282;42.698;23.350;2023-04-12T13:07:27;94390.19;;;15.23;24.34
78894;BME280;68282;42.698;23.350;2023-04-12T13:09:52;94391.56;;;15.26;24.48
78894;BME280;68282;42.698;23.350;2023-04-12T13:12:17;94407.72;;;15.22;24.29
78894;BME280;68282;42.698;23.350;2023-04-12T13:14:46;94393.72;;;14.99;24.36
78894;BME280;68282;42.698;23.350;2023-04-12T13:17:11;94399.59;;;15.17;25.08